createdAt,value
2024-03-08T00:01:29.236Z,26.65
2024-03-08T00:03:59.486Z,21.83
2024-03-08T00:06:29.728Z,21.47
2024-03-08T00:09:00.244Z,24.27
2024-03-08T00:11:30.647Z,23.47
2024-03-08T00:14:03.515Z,24.87
2024-03-08T00:16:33.666Z,25.13
2024-03-08T00:19:03.878Z,23.77
2024-03-08T00:21:34.273Z,26.57
2024-03-08T00:24:04.827Z,25.63
2024-03-08T00:26:35.107Z,27.40
2024-03-08T00:29:09.101Z,24.60
2024-03-08T00:31:39.310Z,23.38
2024-03-08T00:34:12.969Z,24.23
2024-03-08T00:36:43.168Z,22.77
2024-03-08T00:39:13.505Z,22.00
2024-03-08T00:41:45.984Z,25.57
2024-03-08T00:44:18.827Z,30.70
2024-03-08T00:46:51.036Z,28.13
2024-03-08T00:49:23.051Z,21.45
2024-03-08T00:51:53.185Z,26.50
2024-03-08T00:54:23.672Z,25.33
2024-03-08T00:56:54.133Z,27.13
2024-03-08T00:59:26.946Z,25.47
2024-03-08T01:01:57.878Z,25.17
2024-03-08T01:04:30.365Z,21.50
2024-03-08T01:07:00.879Z,27.93
2024-03-08T01:09:31.645Z,28.30
2024-03-08T01:12:02.703Z,24.43
2024-03-08T01:14:35.592Z,23.13
2024-03-08T01:17:05.770Z,25.13
2024-03-08T01:19:36.318Z,30.00
2024-03-08T01:22:06.921Z,27.77
2024-03-08T01:24:37.339Z,25.23
2024-03-08T01:27:09.224Z,26.87
2024-03-08T01:29:42.059Z,19.57
2024-03-08T01:32:13.337Z,27.03
2024-03-08T01:34:43.479Z,25.47
2024-03-08T01:37:15.873Z,24.33
2024-03-08T01:39:46.293Z,24.30
2024-03-08T01:42:18.910Z,22.93
2024-03-08T01:44:52.806Z,25.93
2024-03-08T01:47:24.304Z,28.13
2024-03-08T01:49:54.649Z,28.67
2024-03-08T01:52:26.723Z,31.40
2024-03-08T01:54:57.377Z,22.63
2024-03-08T01:57:27.519Z,23.83
2024-03-08T02:00:00.446Z,27.10
2024-03-08T02:02:32.599Z,25.07
2024-03-08T02:05:04.459Z,28.03
2024-03-08T02:07:34.510Z,25.93
2024-03-08T02:10:04.709Z,27.93
2024-03-08T02:15:08.448Z,25.93
2024-03-08T02:17:39.111Z,25.00
2024-03-08T02:20:11.680Z,30.67
2024-03-08T02:22:44.585Z,25.40
2024-03-08T02:25:15.604Z,26.87
2024-03-08T02:27:45.759Z,33.30
2024-03-08T02:30:18.793Z,25.70
2024-03-08T02:32:49.192Z,29.40
2024-03-08T02:35:19.872Z,29.67
2024-03-08T02:37:52.562Z,30.07
2024-03-08T02:40:23.343Z,27.37
2024-03-08T02:42:53.888Z,24.33
2024-03-08T02:45:24.136Z,29.23
2024-03-08T02:47:54.387Z,32.20
2024-03-08T02:50:24.459Z,27.30
2024-03-08T02:52:57.579Z,26.50
2024-03-08T02:55:27.780Z,28.43
2024-03-08T02:57:58.346Z,27.50
2024-03-08T03:00:28.514Z,27.93
2024-03-08T03:02:58.845Z,28.27
2024-03-08T03:05:29.100Z,27.13
2024-03-08T03:08:02.143Z,28.57
2024-03-08T03:10:32.585Z,27.67
2024-03-08T03:13:03.058Z,26.90
2024-03-08T03:15:33.134Z,27.70
2024-03-08T03:18:03.414Z,26.60
2024-03-08T03:20:42.164Z,31.60
2024-03-08T03:23:21.983Z,27.43
2024-03-08T03:25:53.629Z,26.23
2024-03-08T03:28:25.288Z,28.77
2024-03-08T03:30:55.492Z,28.10
2024-03-08T03:33:25.777Z,24.40
2024-03-08T03:35:56.261Z,25.77
2024-03-08T03:38:29.406Z,33.43
2024-03-08T03:41:05.621Z,29.80
2024-03-08T03:43:36.113Z,30.43
2024-03-08T03:46:06.937Z,29.53
2024-03-08T03:48:37.508Z,33.00
2024-03-08T03:51:08.674Z,28.23
2024-03-08T03:53:41.493Z,31.13
2024-03-08T03:56:12.149Z,27.47
2024-03-08T03:58:42.261Z,31.87
2024-03-08T04:01:13.968Z,27.80
2024-03-08T04:03:46.352Z,33.43
2024-03-08T04:06:16.483Z,28.97
2024-03-08T04:08:49.250Z,29.13
2024-03-08T04:11:19.912Z,30.30
2024-03-08T04:13:50.052Z,32.50
2024-03-08T04:16:20.320Z,29.03
2024-03-08T04:18:50.713Z,30.43
2024-03-08T04:21:21.310Z,28.20
2024-03-08T04:23:54.049Z,29.97
2024-03-08T04:26:24.181Z,29.20
2024-03-08T04:28:54.536Z,26.33
2024-03-08T04:31:24.885Z,30.03
2024-03-08T04:33:55.300Z,30.37
2024-03-08T04:36:26.242Z,29.00
2024-03-08T04:38:58.957Z,33.33
2024-03-08T04:41:29.351Z,29.27
2024-03-08T04:43:59.684Z,26.73
2024-03-08T04:46:30.103Z,27.47
2024-03-08T04:49:00.743Z,28.10
2024-03-08T04:51:31.156Z,35.10
2024-03-08T04:54:06.213Z,30.27
2024-03-08T04:56:36.685Z,28.80
2024-03-08T04:59:09.458Z,28.80
2024-03-08T05:01:40.335Z,30.73
2024-03-08T05:04:10.772Z,24.00
2024-03-08T05:06:41.167Z,34.67
2024-03-08T05:09:17.443Z,36.23
2024-03-08T05:11:48.813Z,27.83
2024-03-08T05:14:21.767Z,32.60
2024-03-08T05:16:52.419Z,28.47
2024-03-08T05:19:24.640Z,31.47
2024-03-08T05:21:54.791Z,34.87
2024-03-08T05:24:27.445Z,30.97
2024-03-08T05:26:57.907Z,34.03
2024-03-08T05:29:28.342Z,31.60
2024-03-08T05:31:59.521Z,34.27
2024-03-08T05:34:30.337Z,33.37
2024-03-08T05:37:01.633Z,32.77
2024-03-08T05:39:34.607Z,26.63
2024-03-08T05:42:05.133Z,32.07
2024-03-08T05:44:35.567Z,28.23
2024-03-08T05:47:08.285Z,32.33
2024-03-08T05:49:38.644Z,34.10
2024-03-08T05:52:08.981Z,41.07
2024-03-08T05:54:42.379Z,29.40
2024-03-08T05:57:12.828Z,41.07
2024-03-08T05:59:43.278Z,39.07
2024-03-08T06:02:13.653Z,36.53
2024-03-08T06:04:44.017Z,42.20
2024-03-08T06:07:14.663Z,33.00
2024-03-08T06:09:49.379Z,35.20
2024-03-08T06:12:20.877Z,31.63
2024-03-08T06:14:51.332Z,34.63
2024-03-08T06:17:21.707Z,35.70
2024-03-08T06:19:52.315Z,32.67
2024-03-08T06:22:22.770Z,38.87
2024-03-08T06:24:55.507Z,32.00
2024-03-08T06:27:25.916Z,36.77
2024-03-08T06:29:56.256Z,37.63
2024-03-08T06:32:26.642Z,41.53
2024-03-08T06:34:57.154Z,40.00
2024-03-08T06:37:28.557Z,41.23
2024-03-08T06:40:02.127Z,39.00
2024-03-08T06:42:35.039Z,41.58
2024-03-08T06:45:06.615Z,46.23
2024-03-08T06:47:37.328Z,35.87
2024-03-08T06:50:07.973Z,39.10
2024-03-08T06:52:38.032Z,40.60
2024-03-08T06:55:13.455Z,38.40
2024-03-08T06:57:44.344Z,38.00
2024-03-08T07:00:20.206Z,39.93
2024-03-08T07:02:50.918Z,42.75
2024-03-08T07:05:21.429Z,38.70
2024-03-08T07:07:52.365Z,32.83
2024-03-08T07:10:25.785Z,33.57
2024-03-08T07:12:57.023Z,39.00
2024-03-08T07:15:27.481Z,34.93
2024-03-08T07:17:57.903Z,35.50
2024-03-08T07:20:29.968Z,31.65
2024-03-08T07:23:00.137Z,35.42
2024-03-08T07:25:33.163Z,35.35
2024-03-08T07:28:03.535Z,35.50
2024-03-08T07:30:46.616Z,30.38
2024-03-08T07:33:17.085Z,35.22
2024-03-08T07:35:48.483Z,30.60
2024-03-08T07:38:22.465Z,34.15
2024-03-08T07:40:55.160Z,34.83
2024-03-08T07:43:25.537Z,33.40
2024-03-08T07:45:56.401Z,35.17
2024-03-08T07:48:27.274Z,33.25
2024-03-08T07:50:58.117Z,32.50
2024-03-08T07:53:28.523Z,32.43
2024-03-08T07:56:01.587Z,36.55
2024-03-08T07:58:32.980Z,34.28
2024-03-08T08:01:04.434Z,30.75
2024-03-08T08:03:34.813Z,31.77
2024-03-08T08:06:05.381Z,36.30
2024-03-08T08:08:35.686Z,37.63
2024-03-08T08:11:10.553Z,34.35
2024-03-08T08:13:40.938Z,26.38
2024-03-08T08:16:11.754Z,30.20
2024-03-08T08:18:42.240Z,34.50
2024-03-08T08:21:12.656Z,30.70
2024-03-08T08:23:43.151Z,28.83
2024-03-08T08:26:15.837Z,34.17
2024-03-08T08:28:47.748Z,30.38
2024-03-08T08:31:18.221Z,28.60
2024-03-08T08:33:50.597Z,26.73
2024-03-08T08:36:20.786Z,28.77
2024-03-08T08:38:51.499Z,25.02
2024-03-08T08:41:24.886Z,27.08
2024-03-08T08:44:03.500Z,29.33
2024-03-08T08:46:42.118Z,32.47
2024-03-08T08:49:16.064Z,32.10
2024-03-08T08:51:47.130Z,26.38
2024-03-08T08:54:18.248Z,25.50
2024-03-08T08:56:51.297Z,33.85
2024-03-08T08:59:23.737Z,24.45
2024-03-08T09:01:55.185Z,27.38
2024-03-08T09:04:25.870Z,22.80
2024-03-08T09:06:56.644Z,26.27
2024-03-08T09:09:27.053Z,24.30
2024-03-08T09:11:59.841Z,25.08
2024-03-08T09:14:31.123Z,30.02
2024-03-08T09:17:01.543Z,31.33
2024-03-08T09:19:32.037Z,24.60
2024-03-08T09:22:02.439Z,23.85
2024-03-08T09:24:32.804Z,27.95
2024-03-08T09:27:05.734Z,23.63
2024-03-08T09:29:36.658Z,25.00
2024-03-08T09:32:07.144Z,23.15
2024-03-08T09:34:38.709Z,22.77
2024-03-08T09:37:10.328Z,25.77
2024-03-08T09:39:40.828Z,25.67
2024-03-08T09:42:16.360Z,28.60
2024-03-08T09:44:49.525Z,29.70
2024-03-08T09:47:21.935Z,22.30
2024-03-08T09:49:52.380Z,22.35
2024-03-08T09:52:23.050Z,20.45
2024-03-08T09:54:53.250Z,18.77
2024-03-08T09:57:26.007Z,23.35
2024-03-08T09:59:57.608Z,19.27
2024-03-08T10:02:28.208Z,19.17
2024-03-08T10:04:58.847Z,27.58
2024-03-08T10:07:29.955Z,19.02
2024-03-08T10:10:00.688Z,18.98
2024-03-08T10:12:33.507Z,22.92
2024-03-08T10:15:03.640Z,19.05
2024-03-08T10:17:34.241Z,23.52
2024-03-08T10:20:06.245Z,23.05
2024-03-08T10:22:36.890Z,21.40
2024-03-08T10:25:08.253Z,22.98
2024-03-08T10:27:42.271Z,22.55
2024-03-08T10:30:21.116Z,16.35
2024-03-08T10:32:53.005Z,16.20
2024-03-08T10:35:24.037Z,19.40
2024-03-08T10:37:59.971Z,15.18
2024-03-08T10:40:31.123Z,16.15
2024-03-08T10:43:05.514Z,17.80
2024-03-08T10:45:39.550Z,16.23
2024-03-08T10:48:35.917Z,16.45
2024-03-08T10:51:09.550Z,16.80
2024-03-08T10:53:42.839Z,19.15
2024-03-08T10:56:15.804Z,15.20
2024-03-08T10:58:50.756Z,17.55
2024-03-08T11:01:21.059Z,14.60
2024-03-08T11:03:55.005Z,14.95
2024-03-08T11:06:33.700Z,16.17
2024-03-08T11:09:04.032Z,17.05
2024-03-08T11:11:36.271Z,14.30
2024-03-08T11:14:09.162Z,17.85
2024-03-08T11:16:48.144Z,12.65
2024-03-08T11:19:30.324Z,12.60
2024-03-08T11:22:09.102Z,9.98
2024-03-08T11:24:46.536Z,13.27
2024-03-08T11:27:17.124Z,12.68
2024-03-08T11:30:02.930Z,12.70
2024-03-08T11:32:34.184Z,16.35
2024-03-08T11:35:06.843Z,14.23
2024-03-08T11:37:38.788Z,11.73
2024-03-08T11:40:18.248Z,13.57
2024-03-08T11:42:53.000Z,13.07
2024-03-08T11:45:26.317Z,12.18
2024-03-08T11:47:58.797Z,14.75
2024-03-08T11:50:29.223Z,16.10
2024-03-08T11:53:05.729Z,11.82
2024-03-08T11:55:37.155Z,18.00
2024-03-08T11:58:09.332Z,12.10
2024-03-08T12:00:42.696Z,15.30
2024-03-08T12:03:13.538Z,15.52
2024-03-08T12:05:41.329Z,16.27
2024-03-08T12:08:14.401Z,14.13
2024-03-08T12:10:44.907Z,15.27
2024-03-08T12:13:15.864Z,16.02
2024-03-08T12:15:48.904Z,19.20
2024-03-08T12:18:19.233Z,12.75
2024-03-08T12:20:51.418Z,17.80
2024-03-08T12:23:21.596Z,14.55
2024-03-08T12:25:51.984Z,14.23
2024-03-08T12:28:23.717Z,17.95
2024-03-08T12:30:59.978Z,16.10
2024-03-08T12:33:30.793Z,13.15
2024-03-08T12:36:01.626Z,17.05
2024-03-08T12:38:33.113Z,17.83
2024-03-08T12:41:04.298Z,17.95
2024-03-08T12:43:35.480Z,12.80
2024-03-08T12:46:10.097Z,13.85
2024-03-08T12:48:42.036Z,14.10
2024-03-08T12:51:12.440Z,13.85
2024-03-08T12:53:45.379Z,13.35
2024-03-08T12:56:15.724Z,13.68
2024-03-08T12:58:45.954Z,12.95
2024-03-08T13:01:18.941Z,14.82
2024-03-08T13:03:50.895Z,11.97
2024-03-08T13:06:22.973Z,13.32
2024-03-08T13:08:54.758Z,13.68
2024-03-08T13:11:25.622Z,13.88
2024-03-08T13:13:56.692Z,13.32
2024-03-08T13:16:31.078Z,13.57
2024-03-08T13:19:01.559Z,12.02
2024-03-08T13:21:32.969Z,13.45
2024-03-08T13:24:04.616Z,11.75
2024-03-08T13:26:35.174Z,11.82
2024-03-08T13:29:07.600Z,11.40
2024-03-08T13:31:41.080Z,13.75
2024-03-08T13:34:12.871Z,14.98
2024-03-08T13:36:45.639Z,9.52
2024-03-08T13:39:22.213Z,12.23
2024-03-08T13:41:52.489Z,11.30
2024-03-08T13:44:22.556Z,9.90
2024-03-08T13:46:59.482Z,9.50
2024-03-08T13:49:30.589Z,10.80
2024-03-08T13:52:01.880Z,9.48
2024-03-08T13:54:32.740Z,8.40
2024-03-08T13:57:04.942Z,9.70
2024-03-08T13:59:36.480Z,10.85
2024-03-08T14:02:14.670Z,8.63
2024-03-08T14:04:45.592Z,10.27
2024-03-08T14:07:17.612Z,9.32
2024-03-08T14:09:48.093Z,12.88
2024-03-08T14:12:19.199Z,11.43
2024-03-08T14:14:50.668Z,10.48
2024-03-08T14:17:24.710Z,9.70
2024-03-08T14:19:55.964Z,8.90
2024-03-08T14:22:26.365Z,10.18
2024-03-08T14:24:58.103Z,11.45
2024-03-08T14:27:29.910Z,8.18
2024-03-08T14:30:01.123Z,9.07
2024-03-08T14:32:34.429Z,11.23
2024-03-08T14:35:04.942Z,8.93
2024-03-08T14:37:35.177Z,9.45
2024-03-08T14:40:06.564Z,12.57
2024-03-08T14:42:36.741Z,11.70
2024-03-08T14:45:08.466Z,7.93
2024-03-08T14:47:41.210Z,12.70
2024-03-08T14:50:13.920Z,10.43
2024-03-08T14:52:44.285Z,9.15
2024-03-08T14:55:16.108Z,9.80
2024-03-08T14:57:47.363Z,10.85
2024-03-08T15:00:28.233Z,13.70
2024-03-08T15:03:01.185Z,9.35
2024-03-08T15:05:33.785Z,9.90
2024-03-08T15:08:11.951Z,13.48
2024-03-08T15:10:46.157Z,9.60
2024-03-08T15:13:23.202Z,9.23
2024-03-08T15:15:59.196Z,11.25
2024-03-08T15:18:36.208Z,10.30
2024-03-08T15:21:09.018Z,10.07
2024-03-08T15:23:44.710Z,8.00
2024-03-08T15:26:14.833Z,12.02
2024-03-08T15:28:46.513Z,9.00
2024-03-08T15:31:17.203Z,10.02
2024-03-08T15:33:53.077Z,10.25
2024-03-08T15:36:24.416Z,9.77
2024-03-08T15:38:54.777Z,9.68
2024-03-08T15:41:27.847Z,12.27
2024-03-08T15:44:01.248Z,9.85
2024-03-08T15:46:31.671Z,10.77
2024-03-08T15:49:04.414Z,9.57
2024-03-08T15:51:37.342Z,11.63
2024-03-08T15:56:39.524Z,11.02
2024-03-08T15:59:10.383Z,8.52
2024-03-08T16:01:41.246Z,10.57
2024-03-08T16:04:13.985Z,11.88
2024-03-08T16:06:45.673Z,8.88
2024-03-08T16:09:16.914Z,11.13
2024-03-08T16:11:47.467Z,10.57
2024-03-08T16:14:17.932Z,11.07
2024-03-08T16:16:49.867Z,10.18
2024-03-08T16:19:24.372Z,9.50
2024-03-08T16:21:54.801Z,11.90
2024-03-08T16:24:25.132Z,10.98
2024-03-08T16:26:55.526Z,10.57
2024-03-08T16:29:25.973Z,10.13
2024-03-08T16:31:56.924Z,10.95
2024-03-08T16:34:29.832Z,11.07
2024-03-08T16:37:00.244Z,9.63
2024-03-08T16:39:30.652Z,10.57
2024-03-08T16:42:01.608Z,9.70
2024-03-08T16:44:32.006Z,10.15
2024-03-08T16:47:05.332Z,9.70
2024-03-08T16:49:38.236Z,10.23
2024-03-08T16:52:08.980Z,8.98
2024-03-08T16:54:47.213Z,14.15
2024-03-08T16:57:22.151Z,10.13
2024-03-08T16:59:53.020Z,8.23
2024-03-08T17:02:23.578Z,12.52
2024-03-08T17:04:56.530Z,10.65
2024-03-08T17:07:27.188Z,14.85
2024-03-08T17:09:58.983Z,11.02
2024-03-08T17:12:29.888Z,10.48
2024-03-08T17:15:00.720Z,12.77
2024-03-08T17:17:32.279Z,9.90
2024-03-08T17:20:07.993Z,11.98
2024-03-08T17:22:38.447Z,12.07
2024-03-08T17:25:10.179Z,11.77
2024-03-08T17:27:40.588Z,10.68
2024-03-08T17:30:20.979Z,10.73
2024-03-08T17:32:55.541Z,11.85
2024-03-08T17:35:33.286Z,11.68
2024-03-08T17:38:09.981Z,10.65
2024-03-08T17:40:41.848Z,12.07
2024-03-08T17:43:14.973Z,11.82
2024-03-08T17:45:47.626Z,10.98
2024-03-08T17:48:19.355Z,15.68
2024-03-08T17:50:55.606Z,17.40
2024-03-08T17:53:26.163Z,12.93
2024-03-08T17:55:58.093Z,12.85
2024-03-08T17:58:28.470Z,12.30
2024-03-08T18:00:58.936Z,14.98
2024-03-08T18:03:30.479Z,13.13
2024-03-08T18:06:05.939Z,16.10
2024-03-08T18:08:38.280Z,13.32
2024-03-08T18:11:09.716Z,14.43
2024-03-08T18:13:39.957Z,16.15
2024-03-08T18:16:12.831Z,12.82
2024-03-08T18:18:42.970Z,15.32
2024-03-08T18:21:15.688Z,13.35
2024-03-08T18:23:48.432Z,13.65
2024-03-08T18:26:19.770Z,13.70
2024-03-08T18:28:53.962Z,14.70
2024-03-08T18:31:25.665Z,15.95
2024-03-08T18:33:55.744Z,17.60
2024-03-08T18:36:31.602Z,13.30
2024-03-08T18:39:04.791Z,14.70
2024-03-08T18:41:35.873Z,15.35
2024-03-08T18:44:06.546Z,15.35
2024-03-08T18:46:40.005Z,12.55
2024-03-08T18:49:10.454Z,15.77
2024-03-08T18:51:44.550Z,15.90
2024-03-08T18:54:16.523Z,14.18
2024-03-08T18:56:48.091Z,13.65
2024-03-08T18:59:18.559Z,17.08
2024-03-08T19:01:52.043Z,18.23
2024-03-08T19:04:24.862Z,13.57
2024-03-08T19:06:57.786Z,14.25
2024-03-08T19:09:28.166Z,17.05
2024-03-08T19:11:59.135Z,15.25
2024-03-08T19:14:29.569Z,16.77
2024-03-08T19:17:00.006Z,16.00
2024-03-08T19:19:30.570Z,17.33
2024-03-08T19:22:03.390Z,19.15
2024-03-08T19:24:36.056Z,16.73
2024-03-08T19:27:08.293Z,14.25
2024-03-08T19:29:38.757Z,15.75
2024-03-08T19:32:12.521Z,12.55
2024-03-08T19:34:43.072Z,16.67
2024-03-08T19:37:15.823Z,16.70
2024-03-08T19:39:45.902Z,15.82
2024-03-08T19:42:16.299Z,15.57
2024-03-08T19:44:49.264Z,17.83
2024-03-08T19:47:19.857Z,19.48
2024-03-08T19:49:51.104Z,15.05
2024-03-08T19:52:24.083Z,17.63
2024-03-08T19:54:55.491Z,14.50
2024-03-08T19:57:29.919Z,18.20
2024-03-08T20:02:31.150Z,16.45
2024-03-08T20:05:03.042Z,16.92
2024-03-08T20:07:36.035Z,21.20
2024-03-08T20:10:11.223Z,16.48
2024-03-08T20:12:42.201Z,19.58
2024-03-08T20:15:13.904Z,17.48
2024-03-08T20:17:47.103Z,19.38
2024-03-08T20:20:20.803Z,18.65
2024-03-08T20:22:54.544Z,18.00
2024-03-08T20:25:27.937Z,19.55
2024-03-08T20:28:01.657Z,17.92
2024-03-08T20:30:32.398Z,18.42
2024-03-08T20:33:04.467Z,16.67
2024-03-08T20:35:37.377Z,15.77
2024-03-08T20:38:11.359Z,17.90
2024-03-08T20:40:43.322Z,17.60
2024-03-08T20:43:16.773Z,16.33
2024-03-08T20:45:47.917Z,16.05
2024-03-08T20:48:22.015Z,14.65
2024-03-08T20:50:54.946Z,15.50
2024-03-08T20:53:29.170Z,20.25
2024-03-08T20:55:59.718Z,16.98
2024-03-08T20:58:30.115Z,17.60
2024-03-08T21:01:00.689Z,16.63
2024-03-08T21:03:32.588Z,18.38
2024-03-08T21:06:03.072Z,15.25
2024-03-08T21:08:35.939Z,15.63
2024-03-08T21:11:06.676Z,14.73
2024-03-08T21:13:37.510Z,20.80
2024-03-08T21:16:10.618Z,17.85
2024-03-08T21:18:41.081Z,17.88
2024-03-08T21:21:12.801Z,16.23
2024-03-08T21:23:45.443Z,19.95
2024-03-08T21:26:16.191Z,16.80
2024-03-08T21:28:46.613Z,19.13
2024-03-08T21:31:16.994Z,17.05
2024-03-08T21:33:47.461Z,14.75
2024-03-08T21:36:18.204Z,19.05
2024-03-08T21:38:50.861Z,14.00
2024-03-08T21:41:21.356Z,16.48
2024-03-08T21:43:51.810Z,16.02
2024-03-08T21:46:22.250Z,17.27
2024-03-08T21:48:52.613Z,16.27
2024-03-08T21:51:23.049Z,13.30
2024-03-08T21:53:56.130Z,16.83
2024-03-08T21:56:26.475Z,16.95
2024-03-08T21:58:56.838Z,15.82
2024-03-08T22:01:27.602Z,17.08
2024-03-08T22:03:59.522Z,17.08
2024-03-08T22:06:29.952Z,14.95
2024-03-08T22:09:08.132Z,13.23
2024-03-08T22:11:38.613Z,15.70
2024-03-08T22:14:09.219Z,15.13
2024-03-08T22:16:40.891Z,13.23
2024-03-08T22:19:11.780Z,13.02
2024-03-08T22:21:42.247Z,16.63
2024-03-08T22:24:15.223Z,18.65
2024-03-08T22:26:45.583Z,12.77
2024-03-08T22:29:15.959Z,17.73
2024-03-08T22:31:46.548Z,17.48
2024-03-08T22:34:17.226Z,15.05
2024-03-08T22:36:47.401Z,13.85
2024-03-08T22:39:20.108Z,12.80
2024-03-08T22:41:50.591Z,15.30
2024-03-08T22:44:20.739Z,16.25
2024-03-08T22:46:51.903Z,14.48
2024-03-08T22:49:22.322Z,13.95
2024-03-08T22:51:52.445Z,17.20
2024-03-08T22:54:26.425Z,15.70
2024-03-08T22:56:58.089Z,15.73
2024-03-08T22:59:29.241Z,16.48
2024-03-08T23:01:59.484Z,14.50
2024-03-08T23:04:29.625Z,12.65
2024-03-08T23:06:59.820Z,16.80
2024-03-08T23:09:34.445Z,12.98
2024-03-08T23:12:06.500Z,14.68
2024-03-08T23:14:36.684Z,15.82
2024-03-08T23:17:08.258Z,14.30
2024-03-08T23:19:39.373Z,16.10
2024-03-08T23:22:13.360Z,16.60
2024-03-08T23:24:46.054Z,15.85
2024-03-08T23:27:16.181Z,17.13
2024-03-08T23:29:46.294Z,14.20
2024-03-08T23:32:17.448Z,17.92
2024-03-08T23:34:47.633Z,18.17
2024-03-08T23:37:17.833Z,11.93
2024-03-08T23:39:50.822Z,13.48
2024-03-08T23:42:22.382Z,13.02
2024-03-08T23:44:52.722Z,13.80
2024-03-08T23:47:23.244Z,14.25
2024-03-08T23:49:55.354Z,13.65
2024-03-08T23:52:26.027Z,16.90
2024-03-08T23:54:59.895Z,14.35
2024-03-08T23:57:30.879Z,13.95
